Time;durP1;ratioP1;P1;durP2;ratioP2;P2;SDS_P1;SDS_P2;PMS_P1;PMS_P2;Temp;Humidity;BMP_temperature;BMP_pressure;BME280_temperature;BME280_humidity;BME280_pressure;Samples;Min_cycle;Max_cycle;Signal;HPM_P1;HPM_P2
2022/03/25 00:00:10;;;;;;;42.90;17.58;;;;;;;5.48;51.70;102088.47;5032958;28;20049;-50
2022/03/25 00:02:37;;;;;;;37.92;18.83;;;;;;;5.47;51.04;102091.84;5039592;28;20120;-52
2022/03/25 00:05:04;;;;;;;34.88;18.58;;;;;;;5.45;51.62;102083.22;5034704;28;20046;-52
2022/03/25 00:07:30;;;;;;;42.10;19.33;;;;;;;5.42;51.63;102087.38;5038095;28;20053;-50
2022/03/25 00:09:57;;;;;;;37.67;18.30;;;;;;;5.40;52.03;102084.75;5034934;28;20060;-52
2022/03/25 00:12:26;;;;;;;45.50;21.75;;;;;;;5.40;51.94;102089.91;5036517;28;20052;-51
2022/03/25 00:14:52;;;;;;;36.75;18.48;;;;;;;5.36;52.39;102093.19;5035972;28;20860;-50
2022/03/25 00:17:18;;;;;;;45.15;21.00;;;;;;;5.33;52.75;102087.94;5040843;28;20053;-48
2022/03/25 00:19:45;;;;;;;39.25;19.23;;;;;;;5.28;52.66;102087.78;5036914;28;20486;-52
2022/03/25 00:22:11;;;;;;;47.60;21.58;;;;;;;5.24;53.26;102082.50;5038546;28;20041;-51
2022/03/25 00:24:38;;;;;;;39.53;19.55;;;;;;;5.23;53.40;102085.88;5031089;28;20423;-50
2022/03/25 00:27:05;;;;;;;37.58;18.95;;;;;;;5.20;53.10;102078.03;5039052;28;20137;-49
2022/03/25 00:29:32;;;;;;;40.47;19.67;;;;;;;5.20;53.98;102078.94;5035292;28;20076;-48
2022/03/25 00:31:59;;;;;;;43.40;20.45;;;;;;;5.18;53.65;102087.38;5036667;28;20041;-50
2022/03/25 00:34:25;;;;;;;38.53;19.23;;;;;;;5.17;54.38;102077.94;5041098;28;20049;-50
2022/03/25 00:36:52;;;;;;;44.03;21.70;;;;;;;5.14;54.41;102070.09;5035054;28;20123;-50
2022/03/25 00:39:18;;;;;;;47.60;20.35;;;;;;;5.11;54.89;102082.84;5036122;28;20053;-48
2022/03/25 00:41:45;;;;;;;48.20;20.70;;;;;;;5.10;55.22;102076.84;5033990;28;20383;-50
2022/03/25 00:44:12;;;;;;;38.38;19.83;;;;;;;5.08;55.35;102075.91;5031829;28;20076;-53
2022/03/25 00:46:40;;;;;;;44.38;20.98;;;;;;;5.06;55.28;102065.56;5037057;28;20045;-49
2022/03/25 00:49:07;;;;;;;44.55;20.90;;;;;;;5.05;55.36;102074.13;5031927;28;20053;-49
2022/03/25 00:51:34;;;;;;;53.58;26.23;;;;;;;5.04;55.53;102074.06;5037292;28;20067;-51
2022/03/25 00:54:02;;;;;;;70.95;31.63;;;;;;;5.03;55.86;102069.75;5030692;28;20068;-51
2022/03/25 00:56:29;;;;;;;46.15;23.58;;;;;;;5.01;55.96;102066.25;5040035;28;20124;-50
2022/03/25 00:58:55;;;;;;;42.60;20.45;;;;;;;4.97;55.54;102062.69;5034992;28;20478;-52
2022/03/25 01:01:22;;;;;;;40.97;19.65;;;;;;;4.95;55.70;102048.03;5035972;28;20041;-51
2022/03/25 01:03:50;;;;;;;38.72;19.27;;;;;;;4.93;56.02;102047.97;5035658;28;20045;-50
2022/03/25 01:06:17;;;;;;;45.33;20.50;;;;;;;4.92;56.41;102048.81;5036072;28;20053;-48
2022/03/25 01:08:44;;;;;;;45.10;20.80;;;;;;;4.93;56.40;102052.25;5034229;28;20080;-51
2022/03/25 01:11:10;;;;;;;49.00;22.35;;;;;;;4.92;56.84;102048.81;5034095;28;20057;-49
2022/03/25 01:13:37;;;;;;;45.28;20.83;;;;;;;4.91;56.45;102044.50;5033231;28;20041;-49
2022/03/25 01:16:06;;;;;;;48.47;21.40;;;;;;;4.90;56.84;102045.31;5037238;28;20132;-48
2022/03/25 01:18:32;;;;;;;38.10;17.52;;;;;;;4.90;57.37;102045.31;5045534;28;20055;-50
2022/03/25 01:21:00;;;;;;;48.80;22.17;;;;;;;4.90;56.76;102045.31;5036204;28;20383;-50
2022/03/25 01:23:27;;;;;;;48.53;21.27;;;;;;;4.90;57.03;102045.31;5038767;28;20454;-52
2022/03/25 01:25:54;;;;;;;39.30;18.73;;;;;;;4.89;57.05;102042.69;5038681;28;20406;-53
2022/03/25 01:28:21;;;;;;;50.65;23.17;;;;;;;4.87;57.18;102034.91;5038783;28;20497;-52
2022/03/25 01:30:47;;;;;;;51.88;23.60;;;;;;;4.86;57.35;102038.31;5034652;28;20077;-50
2022/03/25 01:33:14;;;;;;;46.30;21.38;;;;;;;4.85;58.01;102035.69;5035550;28;20503;-51
2022/03/25 01:35:41;;;;;;;46.90;22.63;;;;;;;4.83;57.94;102037.31;5035768;28;20069;-51
2022/03/25 01:38:08;;;;;;;45.25;22.48;;;;;;;4.83;58.39;102038.19;5032151;28;20563;-49
2022/03/25 01:40:35;;;;;;;43.95;20.35;;;;;;;4.82;58.32;102030.44;5035498;28;20041;-49
2022/03/25 01:43:01;;;;;;;45.25;21.45;;;;;;;4.81;58.73;102034.72;5031183;28;20045;-50
2022/03/25 01:45:34;;;;;;;49.10;21.83;;;;;;;4.80;58.60;102027.81;5039820;28;20045;-52
2022/03/25 01:48:02;;;;;;;44.28;21.00;;;;;;;4.80;58.85;102032.09;5036680;28;20151;-52
2022/03/25 01:50:29;;;;;;;48.22;21.58;;;;;;;4.79;58.98;102031.22;5032135;28;20457;-52
2022/03/25 01:52:56;;;;;;;44.10;20.70;;;;;;;4.79;59.69;102025.19;5035185;28;21157;-49
2022/03/25 01:55:26;;;;;;;53.13;23.17;;;;;;;4.78;59.70;102026.88;5035341;28;20056;-50
2022/03/25 01:57:56;;;;;;;52.90;23.20;;;;;;;4.76;60.02;102020.81;5032708;28;20041;-52
2022/03/25 02:00:23;;;;;;;57.25;23.77;;;;;;;4.75;59.72;102029.34;5037974;28;20050;-50
2022/03/25 02:02:50;;;;;;;49.55;21.75;;;;;;;4.74;60.06;102032.75;5038478;28;20036;-50
2022/03/25 02:05:18;;;;;;;53.88;24.13;;;;;;;4.72;60.72;102030.13;5035249;28;20046;-50
2022/03/25 02:07:45;;;;;;;48.20;22.77;;;;;;;4.75;61.14;102029.34;5037796;28;20045;-50
2022/03/25 02:10:12;;;;;;;50.67;23.13;;;;;;;4.75;60.71;102024.22;5032416;28;20049;-48
2022/03/25 02:12:40;;;;;;;47.53;21.30;;;;;;;4.78;60.88;102028.59;5035038;28;20038;-50
2022/03/25 02:15:08;;;;;;;50.05;22.65;;;;;;;4.79;60.68;102031.22;5034934;28;20103;-48
2022/03/25 02:17:35;;;;;;;52.88;23.33;;;;;;;4.80;61.28;102027.81;5035625;28;20494;-50
2022/03/25 02:20:07;;;;;;;47.22;21.30;;;;;;;4.79;60.56;102028.63;5040551;28;20063;-52
2022/03/25 02:22:35;;;;;;;49.22;22.25;;;;;;;4.81;60.53;102029.56;5038764;28;20036;-48
2022/03/25 02:25:03;;;;;;;54.95;24.88;;;;;;;4.80;61.52;102022.69;5037484;28;20079;-49
2022/03/25 02:27:30;;;;;;;48.08;22.13;;;;;;;4.83;60.98;102030.50;5033699;28;20438;-51
2022/03/25 02:29:57;;;;;;;46.97;21.15;;;;;;;4.84;61.45;102033.94;5037050;28;20045;-51
2022/03/25 02:32:23;;;;;;;47.17;22.65;;;;;;;4.84;60.98;102024.53;5033636;28;20475;-50
2022/03/25 02:34:50;;;;;;;53.58;24.38;;;;;;;4.86;61.29;102027.16;5036581;28;20053;-50
2022/03/25 02:37:17;;;;;;;52.97;23.40;;;;;;;4.87;60.78;102024.66;5035798;28;20045;-53
2022/03/25 02:39:44;;;;;;;48.80;22.08;;;;;;;4.85;61.37;102026.28;5033289;28;20403;-53
2022/03/25 02:42:11;;;;;;;56.63;25.38;;;;;;;4.85;61.25;102020.28;5030696;28;20414;-49
2022/03/25 02:44:37;;;;;;;54.08;24.02;;;;;;;4.82;61.45;102022.72;5033298;28;20048;-52
2022/03/25 02:47:05;;;;;;;52.88;24.40;;;;;;;4.81;61.84;102018.41;5033018;28;20052;-51
2022/03/25 02:49:31;;;;;;;50.03;23.45;;;;;;;4.79;61.37;102015.78;5038751;28;20057;-51
2022/03/25 02:51:58;;;;;;;49.78;23.00;;;;;;;4.77;61.49;102017.44;5037291;28;20140;-49
2022/03/25 02:54:24;;;;;;;55.42;25.42;;;;;;;4.76;61.70;102010.56;5038532;28;20060;-52
2022/03/25 02:56:52;;;;;;;44.72;21.70;;;;;;;4.73;62.12;102006.19;5039404;28;20046;-49
2022/03/25 02:59:18;;;;;;;51.15;23.42;;;;;;;4.71;62.84;102010.38;5038180;28;20045;-48
2022/03/25 03:01:45;;;;;;;49.20;22.80;;;;;;;4.71;62.28;102001.81;5036098;28;20083;-49
2022/03/25 03:04:11;;;;;;;56.75;24.02;;;;;;;4.69;63.01;102006.00;5032774;28;20049;-49
2022/03/25 03:06:38;;;;;;;53.08;24.23;;;;;;;4.68;62.80;102007.72;5038119;28;20610;-51
2022/03/25 03:09:05;;;;;;;47.67;22.77;;;;;;;4.66;62.43;102003.31;5044067;28;20044;-49
2022/03/25 03:11:31;;;;;;;55.17;23.67;;;;;;;4.61;63.00;102005.72;5041091;28;20049;-52
2022/03/25 03:13:59;;;;;;;55.75;26.65;;;;;;;4.59;63.08;102012.50;5042562;28;20113;-51
2022/03/25 03:16:26;;;;;;;53.90;23.77;;;;;;;4.58;63.43;102009.88;5038789;28;20060;-51
2022/03/25 03:18:52;;;;;;;53.38;25.17;;;;;;;4.59;63.11;102011.63;5038634;28;20498;-49
2022/03/25 03:21:20;;;;;;;55.00;25.60;;;;;;;4.60;63.09;102008.22;5043785;28;20045;-49
2022/03/25 03:23:47;;;;;;;56.28;25.55;;;;;;;4.61;63.68;102007.41;5039039;28;20057;-52
2022/03/25 03:26:13;;;;;;;53.42;24.02;;;;;;;4.61;63.41;102004.84;5036736;28;20053;-48
2022/03/25 03:28:40;;;;;;;60.92;26.52;;;;;;;4.59;63.18;102006.47;5038915;28;20045;-49
2022/03/25 03:31:09;;;;;;;50.95;24.20;;;;;;;4.59;63.24;102006.47;5039231;28;20052;-48
2022/03/25 03:33:35;;;;;;;53.30;24.83;;;;;;;4.59;64.02;102012.50;5046518;28;20444;-49
2022/03/25 03:36:02;;;;;;;55.45;24.63;;;;;;;4.59;63.34;102006.47;5038760;28;20513;-49
2022/03/25 03:38:28;;;;;;;56.33;25.83;;;;;;;4.59;63.84;102006.47;5034507;28;20060;-50
2022/03/25 03:40:55;;;;;;;50.28;22.63;;;;;;;4.60;64.16;102008.22;5036252;28;20506;-48
2022/03/25 03:43:21;;;;;;;54.70;25.98;;;;;;;4.61;63.83;102007.41;5041737;28;20549;-48
2022/03/25 03:45:48;;;;;;;54.15;24.73;;;;;;;4.60;63.80;102008.22;5038422;28;20045;-52
2022/03/25 03:48:16;;;;;;;55.38;23.38;;;;;;;4.59;64.51;102006.47;5037653;28;20048;-48
2022/03/25 03:50:42;;;;;;;48.88;24.20;;;;;;;4.59;64.36;102006.47;5037306;28;20565;-48
2022/03/25 03:53:09;;;;;;;50.70;24.15;;;;;;;4.59;64.25;102006.47;5040369;28;20060;-51
2022/03/25 03:55:36;;;;;;;59.13;26.30;;;;;;;4.59;64.13;102009.03;5039214;28;20048;-51
2022/03/25 03:58:02;;;;;;;49.90;23.73;;;;;;;4.59;64.89;102009.91;5038720;28;20064;-48
2022/03/25 04:00:28;;;;;;;50.25;23.25;;;;;;;4.60;64.47;102013.34;5042420;28;20041;-50
2022/03/25 04:02:55;;;;;;;46.03;22.20;;;;;;;4.60;64.19;102008.22;5037849;28;20564;-49
2022/03/25 04:05:23;;;;;;;59.28;26.13;;;;;;;4.62;64.59;102022.00;5037630;28;20152;-48
2022/03/25 04:07:50;;;;;;;55.55;25.70;;;;;;;4.62;64.40;102027.13;5037275;28;20087;-53
2022/03/25 04:10:19;;;;;;;57.70;25.23;;;;;;;4.63;64.73;102016.03;5035794;28;20343;-48
2022/03/25 04:12:46;;;;;;;55.30;25.73;;;;;;;4.63;64.87;102018.59;5033486;28;20038;-50
2022/03/25 04:15:13;;;;;;;55.53;24.67;;;;;;;4.63;64.43;102029.75;5037766;28;20041;-49
2022/03/25 04:17:40;;;;;;;50.00;22.38;;;;;;;4.63;64.61;102023.75;5037902;28;20044;-49
2022/03/25 04:20:08;;;;;;;48.22;22.98;;;;;;;4.62;64.70;102022.88;5039950;28;20432;-50
2022/03/25 04:22:36;;;;;;;53.45;23.85;;;;;;;4.61;65.14;102015.97;5034458;28;20045;-49
2022/03/25 04:25:04;;;;;;;59.70;25.55;;;;;;;4.62;64.40;102016.84;5034862;28;20048;-49
2022/03/25 04:27:30;;;;;;;59.33;26.50;;;;;;;4.60;64.97;102023.63;5036669;28;20045;-49
2022/03/25 04:29:56;;;;;;;63.80;27.60;;;;;;;4.59;64.68;102016.75;5038267;28;20041;-48
2022/03/25 04:32:23;;;;;;;63.45;27.92;;;;;;;4.58;65.24;102015.88;5038056;28;20384;-48
2022/03/25 04:34:49;;;;;;;54.97;24.40;;;;;;;4.57;65.19;102015.81;5033804;28;20057;-51
2022/03/25 04:37:16;;;;;;;52.63;24.35;;;;;;;4.56;65.37;102012.38;5033660;28;20056;-48
2022/03/25 04:39:44;;;;;;;56.70;25.83;;;;;;;4.56;65.83;102003.78;5037272;28;20049;-49
2022/03/25 04:42:10;;;;;;;56.15;25.20;;;;;;;4.59;64.90;102006.47;5037461;28;20045;-48
2022/03/25 04:44:36;;;;;;;54.38;25.92;;;;;;;4.57;65.40;102006.41;5040235;28;20049;-50
2022/03/25 04:47:03;;;;;;;58.28;24.67;;;;;;;4.59;65.66;102006.47;5038922;28;20056;-50
2022/03/25 04:49:30;;;;;;;60.65;27.23;;;;;;;4.60;65.89;102003.09;5036458;28;20509;-50
2022/03/25 04:51:56;;;;;;;53.22;25.48;;;;;;;4.65;65.58;102004.13;5040256;28;20453;-51
2022/03/25 04:54:23;;;;;;;55.22;25.38;;;;;;;4.66;65.50;101993.03;5033257;28;20053;-52
2022/03/25 04:56:50;;;;;;;63.78;24.88;;;;;;;4.69;65.39;101995.75;5039312;28;20045;-53
2022/03/25 04:59:17;;;;;;;54.67;24.13;;;;;;;4.73;65.49;101995.91;5037366;28;20041;-49
2022/03/25 05:01:43;;;;;;;47.20;22.70;;;;;;;4.78;65.65;101997.75;5033181;28;20375;-48
2022/03/25 05:04:10;;;;;;;59.92;26.45;;;;;;;4.82;65.44;101985.06;5039072;28;21472;-50
2022/03/25 05:06:36;;;;;;;59.75;26.42;;;;;;;4.86;65.04;101986.06;5036146;28;20060;-49
2022/03/25 05:09:03;;;;;;;57.30;24.77;;;;;;;4.90;66.01;101991.34;5039224;28;20054;-52
2022/03/25 05:11:29;;;;;;;62.40;25.92;;;;;;;4.98;65.89;101992.47;5032536;28;20467;-49
2022/03/25 05:13:57;;;;;;;59.72;26.83;;;;;;;5.08;65.68;101981.69;5035684;28;20499;-49
2022/03/25 05:16:24;;;;;;;57.20;27.35;;;;;;;5.21;65.85;101982.13;5036778;28;20407;-48
2022/03/25 05:18:51;;;;;;;58.17;24.70;;;;;;;5.35;65.69;101979.19;5037314;28;20056;-50
2022/03/25 05:21:18;;;;;;;61.58;26.80;;;;;;;5.51;64.88;101985.69;5039559;28;20494;-51
2022/03/25 05:23:44;;;;;;;56.10;24.92;;;;;;;5.66;64.52;101993.88;5038369;28;20042;-51
2022/03/25 05:26:11;;;;;;;62.22;27.50;;;;;;;5.82;64.30;101991.81;5039973;28;20081;-50
2022/03/25 05:28:37;;;;;;;51.88;25.77;;;;;;;5.98;64.33;101994.94;5041227;28;20060;-50
2022/03/25 05:31:05;;;;;;;56.50;26.75;;;;;;;6.13;63.87;101991.06;5041581;28;20041;-53
2022/03/25 05:33:32;;;;;;;60.28;27.77;;;;;;;6.28;63.60;101988.97;5037910;28;20056;-51
2022/03/25 05:35:58;;;;;;;54.70;26.42;;;;;;;6.43;63.20;101988.53;5040157;28;20475;-48
2022/03/25 05:38:24;;;;;;;62.10;27.98;;;;;;;6.57;62.51;101982.06;5040025;28;20060;-50
2022/03/25 05:40:51;;;;;;;63.30;28.95;;;;;;;6.73;61.92;101983.34;5036512;28;20053;-52
2022/03/25 05:43:17;;;;;;;59.05;28.30;;;;;;;6.87;61.69;101993.22;5041132;28;20047;-50
2022/03/25 05:45:45;;;;;;;63.15;28.30;;;;;;;7.01;61.42;101993.56;5042266;28;20037;-49
2022/03/25 05:48:12;;;;;;;73.47;31.65;;;;;;;7.15;60.85;101999.97;5041539;28;20154;-48
2022/03/25 05:50:39;;;;;;;63.80;27.75;;;;;;;7.29;60.59;102000.34;5038036;28;20501;-48
2022/03/25 05:53:06;;;;;;;59.22;28.60;;;;;;;7.46;60.50;102000.75;5038329;28;20042;-49
2022/03/25 05:55:33;;;;;;;70.82;30.15;;;;;;;7.63;60.22;101995.97;5036041;28;20079;-52
2022/03/25 05:58:01;;;;;;;61.25;28.75;;;;;;;7.81;59.42;101986.09;5037709;28;20069;-52
2022/03/25 06:00:27;;;;;;;69.18;29.92;;;;;;;8.01;58.73;101992.59;5042067;28;20048;-51
2022/03/25 06:02:53;;;;;;;66.63;30.08;;;;;;;8.22;58.35;101995.63;5038657;28;20477;-48
2022/03/25 06:05:21;;;;;;;57.78;28.05;;;;;;;8.45;57.76;101997.88;5036908;28;20065;-51
2022/03/25 06:07:48;;;;;;;57.38;27.75;;;;;;;8.67;57.13;101992.28;5038367;28;20433;-51
2022/03/25 06:10:18;;;;;;;58.70;29.50;;;;;;;8.89;56.32;101993.56;5039236;28;20394;-54
2022/03/25 06:12:44;;;;;;;68.22;30.75;;;;;;;9.11;56.14;101989.66;5034824;28;20410;-50
2022/03/25 06:15:11;;;;;;;70.65;31.02;;;;;;;9.33;55.12;101990.88;5044309;28;20049;-50
2022/03/25 06:17:55;;;;;;;63.97;31.70;;;;;;;9.59;52.76;102004.28;5038848;28;20080;-48
2022/03/25 06:20:24;;;;;;;62.85;30.05;;;;;;;9.80;54.35;102002.00;5034803;28;20048;-51
2022/03/25 06:22:51;;;;;;;59.08;28.02;;;;;;;10.04;53.82;102002.38;5039802;28;20045;-50
2022/03/25 06:25:18;;;;;;;65.03;29.13;;;;;;;10.32;53.34;101995.84;5041684;28;21793;-52
2022/03/25 06:27:47;;;;;;;70.75;31.27;;;;;;;10.60;52.18;102002.28;5040288;28;20409;-52
2022/03/25 06:30:14;;;;;;;78.40;32.67;;;;;;;10.85;51.40;101987.84;5039028;28;20106;-51
2022/03/25 06:32:41;;;;;;;69.05;30.27;;;;;;;11.09;50.96;101992.44;5037525;28;20069;-53
2022/03/25 06:35:08;;;;;;;62.38;31.35;;;;;;;11.34;50.37;101989.19;5037496;28;20356;-51
2022/03/25 06:37:36;;;;;;;76.05;32.17;;;;;;;11.62;49.81;101984.22;5038465;28;20049;-51
2022/03/25 06:40:03;;;;;;;66.38;30.75;;;;;;;11.89;48.46;101989.63;5039517;28;20057;-49
2022/03/25 06:42:29;;;;;;;58.38;31.45;;;;;;;12.16;47.98;101991.53;5032943;28;20047;-54
2022/03/25 06:44:56;;;;;;;59.55;30.13;;;;;;;12.43;47.35;101982.97;5033766;28;20042;-52
2022/03/25 06:47:22;;;;;;;64.32;32.90;;;;;;;12.73;46.69;101989.16;5032392;28;20071;-51
2022/03/25 06:49:49;;;;;;;60.40;32.33;;;;;;;13.02;45.95;101994.44;5037718;28;20414;-53
2022/03/25 06:52:16;;;;;;;63.13;32.22;;;;;;;13.33;45.37;101995.38;5035907;28;20510;-50
2022/03/25 06:54:44;;;;;;;57.65;31.75;;;;;;;13.61;44.43;101986.69;5034527;28;20050;-55
2022/03/25 06:57:12;;;;;;;56.08;32.47;;;;;;;13.88;43.88;101991.00;5034167;28;20052;-52
2022/03/25 06:59:41;;;;;;;65.30;31.17;;;;;;;14.14;43.36;101988.34;5036909;28;20045;-54
2022/03/25 07:02:09;;;;;;;60.42;32.47;;;;;;;14.41;42.88;101996.03;5037464;28;20041;-52
2022/03/25 07:04:36;;;;;;;51.13;29.00;;;;;;;14.75;42.97;101993.31;5031557;28;20048;-52
2022/03/25 07:07:05;;;;;;;52.08;30.08;;;;;;;15.11;42.38;101998.34;5034609;28;20063;-50
2022/03/25 07:09:31;;;;;;;70.97;33.95;;;;;;;15.38;41.82;101991.16;5032533;28;20046;-50
2022/03/25 07:12:00;;;;;;;63.88;35.13;;;;;;;15.68;40.51;101998.78;5035343;28;20403;-50
2022/03/25 07:14:27;;;;;;;62.92;32.17;;;;;;;15.94;40.14;101998.50;5035302;28;20052;-51
2022/03/25 07:16:54;;;;;;;89.18;36.25;;;;;;;16.16;39.63;101995.69;5024915;28;20045;-56
2022/03/25 07:19:20;;;;;;;72.78;35.60;;;;;;;16.33;38.73;101986.75;5032182;28;20053;-54
2022/03/25 07:21:46;;;;;;;73.95;33.92;;;;;;;16.51;38.86;101984.75;5033715;28;20706;-56
2022/03/25 07:24:13;;;;;;;73.90;33.10;;;;;;;16.79;38.70;101986.16;5032653;28;20049;-55
2022/03/25 07:26:39;;;;;;;63.58;34.28;;;;;;;17.01;38.05;101990.19;5032435;28;20057;-58
2022/03/25 07:29:08;;;;;;;62.95;36.08;;;;;;;17.26;37.26;101992.47;5026841;28;20052;-54
2022/03/25 07:31:34;;;;;;;62.95;35.45;;;;;;;17.48;37.22;101999.06;5027557;28;20045;-51
2022/03/25 07:34:01;;;;;;;61.88;34.58;;;;;;;17.79;36.92;101993.34;5024622;28;20041;-55
2022/03/25 07:36:27;;;;;;;76.18;36.97;;;;;;;18.16;36.22;101994.34;5028326;28;20049;-54
2022/03/25 07:38:54;;;;;;;71.50;38.38;;;;;;;18.46;35.55;101987.63;5031824;28;20084;-52
2022/03/25 07:41:21;;;;;;;67.90;36.83;;;;;;;18.77;35.12;101990.50;5030958;28;20057;-59
2022/03/25 07:43:47;;;;;;;71.90;37.17;;;;;;;19.04;34.56;101988.13;5035823;28;20041;-58
2022/03/25 07:46:16;;;;;;;51.35;34.13;;;;;;;19.23;34.47;101995.53;5037880;28;20041;-57
2022/03/25 07:48:42;;;;;;;70.85;34.63;;;;;;;19.59;34.30;101985.03;5033163;28;20136;-56
2022/03/25 07:51:09;;;;;;;57.63;35.67;;;;;;;19.91;33.55;101993.84;5035153;28;20463;-56
2022/03/25 07:53:35;;;;;;;51.67;31.95;;;;;;;20.14;32.97;101988.81;5036709;28;20425;-55
2022/03/25 07:56:02;;;;;;;53.42;31.30;;;;;;;20.41;32.16;101989.84;5030791;28;20045;-58
2022/03/25 07:58:29;;;;;;;55.33;33.83;;;;;;;20.68;31.56;101986.38;5033923;28;20474;-59
2022/03/25 08:00:56;;;;;;;50.58;31.27;;;;;;;20.95;31.08;101991.72;5032335;28;20042;-58
2022/03/25 08:03:23;;;;;;;57.08;33.20;;;;;;;21.28;30.73;101998.56;5030733;28;20045;-60
2022/03/25 08:05:50;;;;;;;50.22;31.95;;;;;;;21.58;30.45;101996.69;5030164;28;20057;-61
2022/03/25 08:08:19;;;;;;;52.65;31.08;;;;;;;21.99;29.82;101992.59;5028815;28;20466;-53
2022/03/25 08:10:55;;;;;;;50.17;30.95;;;;;;;22.39;28.09;101991.19;5028664;28;20042;-56
2022/03/25 08:13:21;;;;;;;61.08;32.05;;;;;;;22.49;28.48;101995.19;5032666;28;20056;-47
2022/03/25 08:15:48;;;;;;;57.42;28.05;;;;;;;22.83;27.86;101996.53;5030417;28;20533;-55
2022/03/25 08:18:16;;;;;;;50.15;27.10;;;;;;;23.07;27.45;101994.72;5029787;28;20054;-50
2022/03/25 08:20:45;;;;;;;39.40;23.98;;;;;;;23.30;26.88;101998.13;5032145;28;20047;-59
2022/03/25 08:23:13;;;;;;;38.58;26.27;;;;;;;23.36;26.39;102006.75;5036865;28;20068;-58
2022/03/25 08:28:25;;;;;;;46.28;26.52;;;;;;;22.84;26.43;102004.41;5030005;28;20134;-57
2022/03/25 08:30:51;;;;;;;49.05;26.80;;;;;;;22.59;26.73;101999.19;5031942;28;20376;-57
2022/03/25 08:33:18;;;;;;;48.67;26.15;;;;;;;22.51;26.74;101998.63;5030065;28;20418;-55
2022/03/25 08:35:47;;;;;;;39.03;22.55;;;;;;;22.48;26.87;102000.53;5034203;28;20072;-49
2022/03/25 08:38:14;;;;;;;42.72;24.95;;;;;;;22.56;27.33;101999.31;5038326;28;20098;-56
2022/03/25 08:40:41;;;;;;;51.83;23.70;;;;;;;22.78;27.37;102001.97;5044875;28;20422;-58
2022/03/25 08:43:08;;;;;;;36.50;22.38;;;;;;;22.97;27.12;101997.75;5036676;28;20042;-58
2022/03/25 08:45:35;;;;;;;35.65;22.67;;;;;;;22.98;27.38;102001.25;5043275;28;20049;-53
2022/03/25 08:48:01;;;;;;;48.20;22.75;;;;;;;23.07;27.15;101997.38;5036759;28;20061;-53
2022/03/25 08:50:28;;;;;;;40.28;20.33;;;;;;;23.03;27.13;101999.28;5029986;28;20049;-53
2022/03/25 08:52:57;;;;;;;61.25;22.15;;;;;;;22.85;27.07;101990.28;5029748;28;20052;-50
2022/03/25 08:55:24;;;;;;;35.13;18.88;;;;;;;22.64;27.52;101989.31;5029911;28;20068;-51
2022/03/25 08:57:50;;;;;;;28.23;19.17;;;;;;;22.57;27.49;101985.19;5029286;28;20394;-50
2022/03/25 09:00:19;;;;;;;29.77;20.58;;;;;;;22.55;27.81;101986.16;5031284;28;20048;-53
2022/03/25 09:02:47;;;;;;;42.97;21.27;;;;;;;22.40;27.70;101984.97;5031846;28;20141;-56
2022/03/25 09:05:14;;;;;;;52.65;22.70;;;;;;;22.25;28.12;101983.75;5029732;28;20048;-52
2022/03/25 09:07:42;;;;;;;41.92;20.92;;;;;;;21.92;28.49;101991.09;5028941;28;20380;-54
2022/03/25 09:10:14;;;;;;;35.13;19.27;;;;;;;21.65;28.80;101992.06;5030827;28;20100;-50
2022/03/25 09:12:41;;;;;;;35.10;18.90;;;;;;;21.52;28.97;101996.88;5029167;28;20045;-48
2022/03/25 09:15:09;;;;;;;51.33;23.25;;;;;;;21.39;28.92;101991.19;5029139;28;20045;-49
2022/03/25 09:17:36;;;;;;;43.95;19.83;;;;;;;21.10;29.16;101993.84;5030202;28;20057;-48
2022/03/25 09:20:05;;;;;;;39.40;21.23;;;;;;;20.93;29.65;101990.91;5028829;28;20055;-54
2022/03/25 09:22:31;;;;;;;39.45;20.55;;;;;;;20.86;29.94;101989.38;5026754;28;20143;-49
2022/03/25 09:24:59;;;;;;;37.88;20.38;;;;;;;20.87;29.79;101985.81;5032014;28;20060;-58
2022/03/25 09:27:27;;;;;;;40.92;20.25;;;;;;;20.73;29.96;101984.44;5034737;28;20045;-52
2022/03/25 09:29:53;;;;;;;43.35;20.75;;;;;;;20.75;29.99;101980.00;5031742;28;20056;-53
2022/03/25 09:32:20;;;;;;;54.33;22.10;;;;;;;20.66;30.13;101975.00;5028994;28;20425;-55
2022/03/25 09:37:34;;;;;;;;;;;;;;;20.29;30.48;101984.88;5030224;28;20047;-52
2022/03/25 09:40:00;;;;;;;44.42;20.52;;;;;;;20.33;30.82;101987.41;5028837;28;19943;-51
2022/03/25 09:42:29;;;;;;;41.75;21.00;;;;;;;20.38;30.87;101992.53;5026283;28;20052;-53
2022/03/25 09:44:57;;;;;;;32.05;18.70;;;;;;;20.44;30.93;101989.75;5029498;28;20076;-51
2022/03/25 09:47:23;;;;;;;48.58;21.02;;;;;;;20.51;30.50;101988.66;5029429;28;20064;-48
2022/03/25 09:49:52;;;;;;;35.53;20.52;;;;;;;20.50;30.16;101976.41;5029417;28;20079;-49
2022/03/25 09:52:19;;;;;;;48.50;20.98;;;;;;;20.51;30.47;101983.38;5029116;28;20053;-52
2022/03/25 09:54:45;;;;;;;33.22;18.63;;;;;;;20.56;30.52;101986.75;5031013;28;20156;-51
2022/03/25 09:57:12;;;;;;;33.05;17.55;;;;;;;20.60;30.37;101985.75;5033121;28;20049;-49
2022/03/25 09:59:40;;;;;;;28.73;17.60;;;;;;;20.60;30.49;101983.09;5027941;28;20049;-57
2022/03/25 10:02:06;;;;;;;45.15;19.98;;;;;;;20.48;30.44;101984.34;5031508;28;20072;-57
2022/03/25 10:04:46;;;;;;;36.63;17.50;;;;;;;20.45;30.62;101980.94;5029440;28;20053;-46
2022/03/25 10:07:17;;;;;;;32.22;18.60;;;;;;;20.33;31.00;101995.31;5027006;28;20057;-60
2022/03/25 10:09:44;;;;;;;31.20;18.98;;;;;;;20.32;30.84;101992.72;5029250;28;20054;-51
2022/03/25 10:12:24;;;;;;;48.78;19.92;;;;;;;20.28;31.03;101996.31;5031218;28;20506;-51
2022/03/25 10:15:10;;;;;;;33.78;17.02;;;;;;;20.25;31.07;101991.13;5027716;28;20052;-53
2022/03/25 10:17:55;;;;;;;29.25;18.20;;;;;;;20.21;30.98;101994.75;5027586;28;20053;-54
2022/03/25 10:20:24;;;;;;;28.25;16.95;;;;;;;20.10;31.04;101997.69;5031359;28;20053;-57
2022/03/25 10:23:15;;;;;;;35.95;17.63;;;;;;;20.08;31.26;101995.13;5026606;28;20136;-53
2022/03/25 10:25:45;;;;;;;38.35;18.42;;;;;;;20.05;31.07;101995.19;5015588;28;20533;-53
2022/03/25 10:28:25;;;;;;;27.27;17.58;;;;;;;20.02;31.28;101989.16;5033360;28;20142;-50
2022/03/25 10:30:54;;;;;;;41.50;18.10;;;;;;;19.92;31.77;101988.56;5034114;28;20111;-46
2022/03/25 10:33:24;;;;;;;24.75;15.02;;;;;;;19.87;31.29;101990.44;5030029;28;20699;-51
2022/03/25 10:35:58;;;;;;;24.77;15.15;;;;;;;19.80;31.52;101978.38;5026686;28;20045;-51
2022/03/25 10:38:27;;;;;;;30.50;16.13;;;;;;;19.72;31.66;101969.78;5028282;28;20087;-48
2022/03/25 10:40:54;;;;;;;28.23;14.88;;;;;;;19.74;31.74;101967.97;5033745;28;20067;-47
2022/03/25 10:43:21;;;;;;;28.58;16.33;;;;;;;19.80;31.61;101973.97;5033396;28;20060;-49
2022/03/25 10:45:48;;;;;;;34.13;17.70;;;;;;;19.85;31.41;101971.22;5027762;28;20045;-52
2022/03/25 10:48:18;;;;;;;30.33;16.67;;;;;;;19.85;31.29;101965.94;5027736;28;20068;-55
2022/03/25 10:51:04;;;;;;;24.15;15.18;;;;;;;19.91;31.24;101968.41;5026984;28;20049;-52
2022/03/25 10:53:31;;;;;;;;;;;;;;;19.92;31.25;101964.88;5028275;28;20474;-58
2022/03/25 10:55:58;;;;;;;24.77;12.93;;;;;;;19.92;31.18;101964.88;5026510;28;19929;-59
2022/03/25 10:58:25;;;;;;;23.45;13.23;;;;;;;19.96;31.11;101958.63;5026117;28;20049;-59
2022/03/25 11:00:52;;;;;;;25.33;13.75;;;;;;;20.02;31.33;101958.44;5028587;28;20461;-49
2022/03/25 11:03:20;;;;;;;29.00;15.27;;;;;;;20.08;31.09;101962.66;5026214;28;20045;-52
2022/03/25 11:05:46;;;;;;;43.88;15.75;;;;;;;20.08;30.60;101963.53;5026869;28;20046;-57
2022/03/25 11:08:13;;;;;;;21.63;12.70;;;;;;;20.09;30.86;101960.00;5032066;28;20052;-55
2022/03/25 11:10:40;;;;;;;48.72;14.90;;;;;;;20.02;31.01;101958.44;5031680;28;20052;-57
2022/03/25 11:13:08;;;;;;;28.55;13.77;;;;;;;19.92;31.42;101956.97;5032753;28;20049;-57
2022/03/25 11:15:35;;;;;;;23.27;12.88;;;;;;;19.83;31.63;101947.56;5032106;28;20053;-57
2022/03/25 11:18:02;;;;;;;30.45;13.55;;;;;;;19.80;32.08;101952.06;5031448;28;20061;-54
2022/03/25 11:20:30;;;;;;;28.73;14.60;;;;;;;19.78;31.91;101944.19;5032978;28;20580;-50